createdAt,value
2022-11-02T00:01:42.573Z,5.98
2022-11-02T00:03:44.193Z,5.88
2022-11-02T00:05:45.691Z,5.88
2022-11-02T00:07:47.363Z,5.83
2022-11-02T00:11:50.368Z,5.8
2022-11-02T00:13:52.155Z,5.7
2022-11-02T00:15:54.193Z,5.77
2022-11-02T00:17:55.982Z,5.85
2022-11-02T00:19:57.097Z,5.85
2022-11-02T00:21:58.153Z,5.76
2022-11-02T00:24:00.085Z,5.76
2022-11-02T00:26:02.472Z,5.73
2022-11-02T00:28:02.536Z,5.62
2022-11-02T00:30:03.599Z,5.68
2022-11-02T00:32:05.404Z,5.96
2022-11-02T00:34:06.956Z,5.95
2022-11-02T00:36:08.344Z,5.89
2022-11-02T00:38:10.288Z,5.83
2022-11-02T00:40:12.221Z,5.7
2022-11-02T00:42:13.899Z,5.65
2022-11-02T00:44:15.426Z,5.76
2022-11-02T00:46:17.176Z,5.83
2022-11-02T00:48:18.412Z,5.83
2022-11-02T00:50:20.331Z,6.08
2022-11-02T00:52:21.745Z,6.07
2022-11-02T00:54:24.521Z,6
2022-11-02T00:56:24.517Z,5.89
2022-11-02T00:58:25.665Z,5.74
2022-11-02T01:00:27.062Z,5.59
2022-11-02T01:02:29.100Z,5.73
2022-11-02T01:04:30.156Z,5.62
2022-11-02T01:06:31.456Z,5.53
2022-11-02T01:08:32.554Z,5.6
2022-11-02T01:10:34.312Z,5.48
2022-11-02T01:12:35.679Z,5.35
2022-11-02T01:14:37.674Z,5.49
2022-11-02T01:16:38.852Z,5.51
2022-11-02T01:18:48.902Z,5.51
2022-11-02T01:20:40.985Z,5.44
2022-11-02T01:22:42.349Z,5.54
2022-11-02T01:24:43.572Z,5.58
2022-11-02T01:26:53.683Z,5.63
2022-11-02T01:28:46.421Z,5.62
2022-11-02T01:30:48.030Z,5.54
2022-11-02T01:32:49.807Z,5.38
2022-11-02T01:34:51.254Z,5.2
2022-11-02T01:36:52.649Z,5.1
2022-11-02T01:38:54.341Z,5.26
2022-11-02T01:40:55.782Z,5.27
2022-11-02T01:42:57.703Z,5.23
2022-11-02T01:44:58.801Z,5.22
2022-11-02T01:47:00.432Z,5.15
2022-11-02T01:49:01.619Z,5.2
2022-11-02T01:51:03.545Z,5.1
2022-11-02T01:53:04.682Z,5.1
2022-11-02T01:55:06.440Z,5.06
2022-11-02T01:57:07.699Z,5.07
2022-11-02T01:59:08.943Z,5.14
2022-11-02T02:01:10.334Z,5.13
2022-11-02T02:03:12.202Z,5.06
2022-11-02T02:05:13.512Z,5.09
2022-11-02T02:07:15.365Z,5.18
2022-11-02T02:09:16.821Z,5.07
2022-11-02T02:11:18.470Z,5.16
2022-11-02T02:13:20.389Z,5.21
2022-11-02T02:15:21.623Z,5.2
2022-11-02T02:17:22.695Z,5.09
2022-11-02T02:19:24.215Z,5.26
2022-11-02T02:21:25.455Z,5.31
2022-11-02T02:23:27.075Z,5.15
2022-11-02T02:25:28.850Z,5.13
2022-11-02T02:27:30.116Z,5.06
2022-11-02T02:29:31.964Z,5.01
2022-11-02T02:31:33.614Z,4.98
2022-11-02T02:33:35.585Z,5.04
2022-11-02T02:35:36.760Z,5.04
2022-11-02T02:37:38.676Z,4.99
2022-11-02T02:39:40.468Z,5.01
2022-11-02T02:41:41.801Z,5.05
2022-11-02T02:43:43.470Z,5.17
2022-11-02T02:45:44.639Z,5.24
2022-11-02T02:47:46.448Z,5.26
2022-11-02T02:49:47.803Z,5.29
2022-11-02T02:51:48.820Z,5.34
2022-11-02T02:53:49.956Z,5.29
2022-11-02T02:55:51.678Z,5.21
2022-11-02T02:57:53.190Z,5.13
2022-11-02T02:59:54.643Z,4.97
2022-11-02T03:01:55.859Z,4.84
2022-11-02T03:03:57.259Z,4.91
2022-11-02T03:05:58.696Z,4.9
2022-11-02T03:07:59.893Z,4.95
2022-11-02T03:10:01.333Z,4.99
2022-11-02T03:12:02.697Z,4.95
2022-11-02T03:14:04.019Z,5.02
2022-11-02T03:16:05.778Z,5.03
2022-11-02T03:18:07.643Z,5.18
2022-11-02T03:20:08.970Z,5.31
2022-11-02T03:22:10.515Z,5.34
2022-11-02T03:24:11.581Z,5.44
2022-11-02T03:26:12.852Z,5.6
2022-11-02T03:28:14.473Z,5.54
2022-11-02T03:30:15.843Z,5.38
2022-11-02T03:32:16.845Z,5.31
2022-11-02T03:34:18.432Z,5.32
2022-11-02T03:36:19.517Z,5.38
2022-11-02T03:38:21.088Z,5.43
2022-11-02T03:40:22.476Z,6.21
2022-11-02T03:42:24.333Z,6.52
2022-11-02T03:44:25.549Z,5.87
2022-11-02T03:46:27.315Z,5.44
2022-11-02T03:48:29.084Z,5.41
2022-11-02T03:50:30.565Z,5.37
2022-11-02T03:52:32.020Z,5.33
2022-11-02T03:54:33.410Z,5.37
2022-11-02T03:56:34.421Z,5.51
2022-11-02T03:58:35.874Z,5.69
2022-11-02T04:00:37.184Z,5.8
2022-11-02T04:02:38.660Z,6.08
2022-11-02T04:04:40.462Z,6.72
2022-11-02T04:06:41.820Z,6.47
2022-11-02T04:08:43.268Z,6.52
2022-11-02T04:10:44.665Z,7.1
2022-11-02T04:12:46.291Z,6.83
2022-11-02T04:14:47.404Z,6.9
2022-11-02T04:16:48.474Z,6.95
2022-11-02T04:18:49.590Z,6.56
2022-11-02T04:20:50.704Z,6.28
2022-11-02T04:22:52.160Z,6.15
2022-11-02T04:24:53.617Z,6.25
2022-11-02T04:26:54.745Z,6.16
2022-11-02T04:28:56.595Z,6.42
2022-11-02T04:30:58.193Z,6.58
2022-11-02T04:32:59.794Z,6.8
2022-11-02T04:35:00.924Z,6.78
2022-11-02T04:37:02.757Z,6.37
2022-11-02T04:39:03.790Z,6.95
2022-11-02T04:41:04.988Z,6.75
2022-11-02T04:43:06.136Z,7.21
2022-11-02T04:45:07.965Z,7.1
2022-11-02T04:47:09.417Z,7.23
2022-11-02T04:49:10.630Z,7
2022-11-02T04:51:12.332Z,7.18
2022-11-02T04:53:13.853Z,6.61
2022-11-02T04:55:15.632Z,6.47
2022-11-02T04:57:17.409Z,6.39
2022-11-02T04:59:18.811Z,6.29
2022-11-02T05:01:20.297Z,6.79
2022-11-02T05:03:21.439Z,6.65
2022-11-02T05:05:22.651Z,6.76
2022-11-02T05:07:23.654Z,6.63
2022-11-02T05:09:24.843Z,7
2022-11-02T05:11:26.731Z,6.82
2022-11-02T05:13:28.331Z,6.83
2022-11-02T05:15:29.369Z,6.93
2022-11-02T05:17:31.099Z,7.01
2022-11-02T05:19:32.591Z,7.14
2022-11-02T05:21:33.669Z,6.89
2022-11-02T05:23:35.062Z,6.79
2022-11-02T05:25:36.988Z,7.08
2022-11-02T05:27:38.875Z,7.04
2022-11-02T05:29:40.022Z,7.43
2022-11-02T05:31:41.606Z,7.56
2022-11-02T05:33:43.481Z,7.74
2022-11-02T05:35:44.981Z,7.82
2022-11-02T05:37:46.665Z,7.78
2022-11-02T05:41:49.660Z,7.17
2022-11-02T05:43:50.855Z,7.49
2022-11-02T05:45:52.395Z,7.5
2022-11-02T05:47:53.710Z,7.14
2022-11-02T05:49:55.592Z,7.14
2022-11-02T05:51:56.821Z,7.4
2022-11-02T05:53:58.386Z,7.15
2022-11-02T05:56:00.150Z,7.18
2022-11-02T05:58:01.740Z,6.77
2022-11-02T06:00:03.343Z,7
2022-11-02T06:02:04.834Z,7.18
2022-11-02T06:04:06.387Z,7.54
2022-11-02T06:06:07.547Z,7.8
2022-11-02T06:08:08.665Z,8.03
2022-11-02T06:10:10.104Z,8.31
2022-11-02T06:12:11.392Z,8.37
2022-11-02T06:14:12.884Z,8.44
2022-11-02T06:16:16.397Z,8.31
2022-11-02T06:20:17.156Z,8.44
2022-11-02T06:22:18.613Z,8.56
2022-11-02T06:25:04.414Z,8.65
2022-11-02T06:27:05.801Z,8.73
2022-11-02T06:29:07.389Z,8.74
2022-11-02T06:31:09.017Z,8.65
2022-11-02T06:33:10.809Z,8.56
2022-11-02T06:35:11.899Z,8.54
2022-11-02T06:37:13.408Z,8.53
2022-11-02T06:39:14.605Z,8.69
2022-11-02T06:41:16.520Z,8.75
2022-11-02T06:43:18.708Z,8.18
2022-11-02T06:45:19.545Z,8.08
2022-11-02T06:47:21.270Z,8.23
2022-11-02T06:49:22.633Z,8.41
2022-11-02T06:51:24.435Z,8.53
2022-11-02T06:53:25.730Z,8.74
2022-11-02T06:55:27.229Z,8.77
2022-11-02T06:57:28.967Z,8.82
2022-11-02T06:59:30.818Z,8.92
2022-11-02T07:01:32.849Z,8.98
2022-11-02T07:03:34.594Z,9.13
2022-11-02T07:05:35.663Z,9.33
2022-11-02T07:07:36.930Z,9.66
2022-11-02T07:09:38.349Z,9.64
2022-11-02T07:11:39.733Z,9.6
2022-11-02T07:13:40.768Z,9.53
2022-11-02T07:15:41.761Z,9.46
2022-11-02T07:17:43.083Z,9.46
2022-11-02T07:19:44.745Z,9.51
2022-11-02T07:21:46.753Z,9.51
2022-11-02T07:23:47.442Z,9.51
2022-11-02T07:25:48.412Z,9.5
2022-11-02T07:27:49.974Z,9.5
2022-11-02T07:29:51.319Z,9.6
2022-11-02T07:31:52.889Z,9.72
2022-11-02T07:33:54.001Z,9.77
2022-11-02T07:35:55.268Z,9.74
2022-11-02T07:37:57.002Z,9.67
2022-11-02T07:39:58.860Z,9.69
2022-11-02T07:42:00.580Z,9.8
2022-11-02T07:44:01.684Z,9.87
2022-11-02T07:46:03.161Z,9.99
2022-11-02T07:48:04.700Z,10.05
2022-11-02T07:50:06.422Z,10.09
2022-11-02T07:52:08.190Z,10.17
2022-11-02T07:54:09.839Z,10.2
2022-11-02T07:56:11.259Z,10.2
2022-11-02T07:58:12.694Z,10.23
2022-11-02T08:00:13.733Z,10.32
2022-11-02T08:02:14.942Z,10.33
2022-11-02T08:04:16.228Z,10.31
2022-11-02T08:06:17.862Z,10.43
2022-11-02T08:08:18.849Z,10.4
2022-11-02T08:10:20.753Z,10.56
2022-11-02T08:12:22.524Z,10.62
2022-11-02T08:14:23.558Z,10.58
2022-11-02T08:16:24.852Z,10.7
2022-11-02T08:18:26.133Z,10.79
2022-11-02T08:20:27.825Z,10.81
2022-11-02T08:22:29.078Z,10.87
2022-11-02T08:24:30.188Z,10.94
2022-11-02T08:26:31.747Z,11.01
2022-11-02T08:28:33.545Z,11.03
2022-11-02T08:30:34.429Z,11.14
2022-11-02T08:32:35.401Z,11.22
2022-11-02T08:34:37.124Z,11.31
2022-11-02T08:36:38.442Z,11.48
2022-11-02T08:38:40.118Z,11.71
2022-11-02T08:40:41.441Z,11.67
2022-11-02T08:42:42.756Z,11.75
2022-11-02T08:44:44.296Z,11.61
2022-11-02T08:46:45.289Z,11.58
2022-11-02T08:48:46.938Z,11.69
2022-11-02T08:50:48.376Z,11.74
2022-11-02T08:52:49.758Z,11.75
2022-11-02T08:54:50.815Z,11.66
2022-11-02T08:56:52.256Z,11.6
2022-11-02T08:58:53.611Z,11.62
2022-11-02T09:00:55.482Z,11.7
2022-11-02T09:02:56.734Z,11.67
2022-11-02T09:04:57.761Z,11.68
2022-11-02T09:06:58.878Z,11.74
2022-11-02T09:09:00.378Z,11.73
2022-11-02T09:11:02.090Z,11.66
2022-11-02T09:13:03.348Z,11.72
2022-11-02T09:15:04.092Z,11.72
2022-11-02T09:17:05.881Z,11.77
2022-11-02T09:19:07.226Z,11.74
2022-11-02T09:21:08.803Z,11.79
2022-11-02T09:23:09.851Z,11.83
2022-11-02T09:25:10.925Z,11.94
2022-11-02T09:27:12.315Z,11.96
2022-11-02T09:29:13.662Z,11.98
2022-11-02T09:31:15.103Z,11.95
2022-11-02T09:33:16.943Z,12.02
2022-11-02T09:35:17.865Z,12.08
2022-11-02T09:37:18.788Z,12.24
2022-11-02T09:39:20.183Z,12.12
2022-11-02T09:41:21.324Z,12.19
2022-11-02T09:43:23.042Z,12.32
2022-11-02T09:45:24.546Z,12.26
2022-11-02T09:48:28.258Z,12.25
2022-11-02T09:49:27.151Z,12.25
2022-11-02T09:51:28.821Z,12.13
2022-11-02T09:53:29.826Z,12.14
2022-11-02T09:55:30.709Z,12.13
2022-11-02T09:57:31.958Z,12.16
2022-11-02T09:59:33.630Z,12.18
2022-11-02T10:01:35.351Z,12.23
2022-11-02T10:03:36.929Z,12.19
2022-11-02T10:05:38.353Z,12.13
2022-11-02T10:07:39.922Z,12.23
2022-11-02T10:09:41.334Z,12.25
2022-11-02T10:11:42.783Z,12.31
2022-11-02T10:13:55.713Z,12.34
2022-11-02T10:15:45.481Z,12.32
2022-11-02T10:17:47.065Z,12.41
2022-11-02T10:19:48.034Z,12.5
2022-11-02T10:21:49.764Z,12.68
2022-11-02T10:23:50.750Z,12.67
2022-11-02T10:25:52.001Z,12.76
2022-11-02T10:27:53.447Z,12.86
2022-11-02T10:29:55.212Z,12.96
2022-11-02T10:31:56.357Z,12.83
2022-11-02T10:33:58.129Z,13.13
2022-11-02T10:38:00.346Z,13.81
2022-11-02T10:40:01.554Z,13.52
2022-11-02T10:42:03.379Z,13.7
2022-11-02T10:44:04.669Z,13.61
2022-11-02T10:46:06.472Z,13.28
2022-11-02T10:48:07.674Z,13.34
2022-11-02T10:50:12.217Z,13.45
2022-11-02T10:52:09.305Z,13.48
2022-11-02T10:54:10.269Z,13.21
2022-11-02T10:56:11.184Z,13.05
2022-11-02T10:58:12.793Z,13.05
2022-11-02T11:00:14.641Z,13.19
2022-11-02T11:02:15.979Z,13.29
2022-11-02T11:04:17.437Z,13.64
2022-11-02T11:06:19.219Z,13.74
2022-11-02T11:08:20.966Z,13.78
2022-11-02T11:10:22.663Z,13.96
2022-11-02T11:12:23.891Z,14.23
2022-11-02T11:16:26.630Z,13.97
2022-11-02T11:20:28.533Z,14.27
2022-11-02T11:22:29.965Z,14.29
2022-11-02T11:24:31.824Z,14.31
2022-11-02T11:26:33.264Z,14.45
2022-11-02T11:28:34.992Z,14.52
2022-11-02T11:30:59.296Z,14.5
2022-11-02T11:32:37.949Z,14.35
2022-11-02T11:34:38.974Z,14.67
2022-11-02T11:36:40.382Z,14.84
2022-11-02T11:38:41.536Z,14.83
2022-11-02T11:40:42.817Z,15.09
2022-11-02T11:42:44.489Z,15.34
2022-11-02T11:44:46.211Z,15.27
2022-11-02T11:46:47.836Z,15.45
2022-11-02T11:48:49.376Z,15.9
2022-11-02T11:50:50.634Z,15.6
2022-11-02T11:52:52.030Z,15.4
2022-11-02T11:54:53.647Z,15.71
2022-11-02T11:56:54.650Z,15.21
2022-11-02T11:58:55.672Z,15.25
2022-11-02T12:00:56.734Z,14.78
2022-11-02T12:02:58.244Z,14.72
2022-11-02T12:04:59.882Z,14.27
2022-11-02T12:07:01.691Z,14.18
2022-11-02T12:09:04.508Z,14.56
2022-11-02T12:11:04.241Z,14.18
2022-11-02T12:13:05.491Z,13.94
2022-11-02T12:15:07.119Z,14.03
2022-11-02T12:17:08.049Z,13.96
2022-11-02T12:19:09.727Z,13.96
2022-11-02T12:21:10.977Z,14.07
2022-11-02T12:23:12.267Z,13.92
2022-11-02T12:25:13.680Z,13.76
2022-11-02T12:27:15.304Z,13.77
2022-11-02T12:29:16.987Z,13.71
2022-11-02T12:31:18.135Z,13.77
2022-11-02T12:33:19.863Z,13.79
2022-11-02T12:37:41.101Z,13.65
2022-11-02T12:39:23.341Z,13.74
2022-11-02T12:41:24.261Z,14.06
2022-11-02T12:43:25.624Z,13.96
2022-11-02T12:45:26.637Z,14.08
2022-11-02T12:47:28.279Z,14.53
2022-11-02T12:49:30.532Z,14.9
2022-11-02T12:51:30.795Z,14.97
2022-11-02T12:53:31.770Z,15.01
2022-11-02T12:55:37.358Z,15.14
2022-11-02T12:57:34.067Z,15.09
2022-11-02T12:59:35.762Z,14.63
2022-11-02T13:01:36.863Z,14.81
2022-11-02T13:03:38.036Z,15.07
2022-11-02T13:05:39.571Z,14.93
2022-11-02T13:07:41.215Z,14.81
2022-11-02T13:08:24.948Z,14.8
2022-11-02T13:10:26.701Z,15.27
2022-11-02T13:12:27.781Z,15.58
2022-11-02T13:14:29.386Z,15.33
2022-11-02T13:16:31.171Z,15.56
2022-11-02T13:18:32.066Z,14.88
2022-11-02T13:20:33.245Z,15.06
2022-11-02T13:22:34.575Z,14.77
2022-11-02T13:24:36.322Z,15.07
2022-11-02T13:26:37.693Z,14.97
2022-11-02T13:28:39.340Z,15.1
2022-11-02T13:30:40.910Z,14.85
2022-11-02T13:32:42.777Z,15.05
2022-11-02T13:34:44.494Z,14.86
2022-11-02T13:36:45.755Z,15.04
2022-11-02T13:38:46.714Z,15.08
2022-11-02T13:40:47.563Z,15.03
2022-11-02T13:42:48.973Z,15.5
2022-11-02T13:44:50.350Z,15.47
2022-11-02T13:46:53.408Z,15.5
2022-11-02T13:48:53.122Z,15.7
2022-11-02T13:50:54.088Z,15.04
2022-11-02T13:52:55.842Z,15.31
2022-11-02T13:56:57.750Z,15.28
2022-11-02T13:58:59.161Z,15.33
2022-11-02T14:01:00.845Z,15.4
2022-11-02T14:03:01.916Z,15.52
2022-11-02T14:05:03.170Z,15.42
2022-11-02T14:07:04.186Z,15.23
2022-11-02T14:09:05.673Z,15.15
2022-11-02T14:11:07.389Z,15.3
2022-11-02T14:13:09.054Z,15.41
2022-11-02T14:15:10.400Z,15.17
2022-11-02T14:17:11.530Z,15.27
2022-11-02T14:19:14.803Z,14.79
2022-11-02T14:21:13.984Z,14.85
2022-11-02T14:23:15.616Z,14.66
2022-11-02T14:25:16.480Z,14.87
2022-11-02T14:27:17.354Z,14.57
2022-11-02T14:29:18.722Z,14.57
2022-11-02T14:31:19.951Z,14.78
2022-11-02T14:33:21.445Z,14.66
2022-11-02T14:35:22.476Z,14.56
2022-11-02T14:37:23.350Z,14.79
2022-11-02T14:39:25.008Z,14.93
2022-11-02T14:41:26.581Z,14.78
2022-11-02T14:43:27.664Z,14.7
2022-11-02T14:45:28.546Z,14.49
2022-11-02T14:47:29.450Z,14.66
2022-11-02T14:49:30.413Z,14.7
2022-11-02T14:51:31.343Z,14.67
2022-11-02T14:53:32.355Z,14.53
2022-11-02T14:55:34.213Z,14.56
2022-11-02T14:57:35.667Z,14.32
2022-11-02T14:59:37.168Z,14.2
2022-11-02T15:01:38.447Z,14.17
2022-11-02T15:03:39.457Z,14.33
2022-11-02T15:05:40.419Z,14.66
2022-11-02T15:07:41.713Z,14.64
2022-11-02T15:09:42.686Z,14.57
2022-11-02T15:11:44.131Z,14.57
2022-11-02T15:13:45.763Z,14.46
2022-11-02T15:15:46.698Z,14.2
2022-11-02T15:17:47.733Z,14.11
2022-11-02T15:19:49.145Z,13.87
2022-11-02T15:21:50.927Z,13.8
2022-11-02T15:23:52.344Z,13.6
2022-11-02T15:25:54.133Z,13.31
2022-11-02T15:27:55.512Z,13.11
2022-11-02T15:29:57.194Z,12.94
2022-11-02T15:31:58.336Z,12.8
2022-11-02T15:33:59.164Z,12.71
2022-11-02T15:36:00.566Z,12.59
2022-11-02T15:38:16.849Z,12.51
2022-11-02T15:40:03.805Z,12.36
2022-11-02T15:42:05.140Z,12.25
2022-11-02T15:44:06.284Z,12.13
2022-11-02T15:46:09.367Z,12.12
2022-11-02T15:48:09.554Z,12.09
2022-11-02T15:50:10.432Z,12.09
2022-11-02T15:52:11.600Z,12.09
2022-11-02T15:54:12.729Z,12.03
2022-11-02T15:56:14.174Z,11.94
2022-11-02T15:58:16.010Z,11.82
2022-11-02T16:00:17.070Z,11.73
2022-11-02T16:02:18.925Z,11.49
2022-11-02T16:04:20.064Z,11.35
2022-11-02T16:06:21.268Z,11.33
2022-11-02T16:08:23.425Z,11.18
2022-11-02T16:10:24.450Z,11
2022-11-02T16:12:25.443Z,10.85
2022-11-02T16:14:27.237Z,10.74
2022-11-02T16:16:32.047Z,10.55
2022-11-02T16:18:29.862Z,10.45
2022-11-02T16:20:31.540Z,10.36
2022-11-02T16:22:32.728Z,10.32
2022-11-02T16:24:34.145Z,10.31
2022-11-02T16:26:35.107Z,10.25
2022-11-02T16:28:36.727Z,10.33
2022-11-02T16:30:38.402Z,10.26
2022-11-02T16:32:39.486Z,10.25
2022-11-02T16:36:42.569Z,9.9
2022-11-02T16:38:44.303Z,9.82
2022-11-02T16:40:45.412Z,9.79
2022-11-02T16:42:46.479Z,9.74
2022-11-02T16:44:47.738Z,9.76
2022-11-02T16:46:49.445Z,9.74
2022-11-02T16:48:50.727Z,9.58
2022-11-02T16:50:52.289Z,9.22
2022-11-02T16:52:53.363Z,9.08
2022-11-02T16:54:55.140Z,9.17
2022-11-02T16:56:56.206Z,9.03
2022-11-02T16:58:57.842Z,8.95
2022-11-02T17:00:58.915Z,8.82
2022-11-02T17:02:59.909Z,8.56
2022-11-02T17:05:02.727Z,8.45
2022-11-02T17:07:03.179Z,8.44
2022-11-02T17:09:04.883Z,8.65
2022-11-02T17:11:06.408Z,8.79
2022-11-02T17:13:07.894Z,8.58
2022-11-02T17:15:08.963Z,8.38
2022-11-02T17:17:10.119Z,8.17
2022-11-02T17:19:15.537Z,8.15
2022-11-02T17:21:13.081Z,8.13
2022-11-02T17:23:14.215Z,8.13
2022-11-02T17:25:15.357Z,7.85
2022-11-02T17:27:16.304Z,7.66
2022-11-02T17:29:17.580Z,7.68
2022-11-02T17:31:19.224Z,7.81
2022-11-02T17:33:20.729Z,7.89
2022-11-02T17:35:26.091Z,7.54
2022-11-02T17:37:23.877Z,7.37
2022-11-02T17:39:25.316Z,7.31
2022-11-02T17:41:27.048Z,7.39
2022-11-02T17:43:28.557Z,7.35
2022-11-02T17:45:30.446Z,7.37
2022-11-02T17:47:32.326Z,7.41
2022-11-02T17:49:34.164Z,7.29
2022-11-02T17:51:35.809Z,7.13
2022-11-02T17:53:37.242Z,7.26
2022-11-02T17:55:38.422Z,7.51
2022-11-02T17:57:39.467Z,7.59
2022-11-02T17:59:41.031Z,7.57
2022-11-02T18:01:42.253Z,7.39
2022-11-02T18:03:43.121Z,7.3
2022-11-02T18:05:46.725Z,7.15
2022-11-02T18:07:46.927Z,6.94
2022-11-02T18:09:48.789Z,6.83
2022-11-02T18:11:50.725Z,6.78
2022-11-02T18:14:01.624Z,6.86
2022-11-02T18:15:54.394Z,6.92
2022-11-02T18:17:56.104Z,6.84
2022-11-02T18:20:06.450Z,6.76
2022-11-02T18:21:59.265Z,6.68
2022-11-02T18:24:00.299Z,6.66
2022-11-02T18:26:01.386Z,6.55
2022-11-02T18:28:03.518Z,6.55
2022-11-02T18:30:04.695Z,6.68
2022-11-02T18:32:05.832Z,6.52
2022-11-02T18:34:07.086Z,6.39
2022-11-02T18:36:08.177Z,6.39
2022-11-02T18:38:09.619Z,6.3
2022-11-02T18:40:11.549Z,6.01
2022-11-02T18:42:13.150Z,5.75
2022-11-02T18:44:15.395Z,5.73
2022-11-02T18:46:15.730Z,5.69
2022-11-02T18:48:16.973Z,5.51
2022-11-02T18:50:18.934Z,5.48
2022-11-02T18:52:22.174Z,5.58
2022-11-02T18:54:21.778Z,5.66
2022-11-02T18:56:22.957Z,5.65
2022-11-02T19:00:26.030Z,5.69
2022-11-02T19:02:27.839Z,5.67
2022-11-02T19:04:29.284Z,5.48
2022-11-02T19:06:30.588Z,5.37
2022-11-02T19:08:32.502Z,5.6
2022-11-02T19:10:34.201Z,5.53
2022-11-02T19:12:35.209Z,5.72
2022-11-02T19:14:36.823Z,5.55
2022-11-02T19:16:38.433Z,5.54
2022-11-02T19:18:39.683Z,5.58
2022-11-02T19:20:41.001Z,5.48
2022-11-02T19:22:42.147Z,5.55
2022-11-02T19:24:43.590Z,5.51
2022-11-02T19:26:44.618Z,5.41
2022-11-02T19:28:46.008Z,5.32
2022-11-02T19:30:47.493Z,5.19
2022-11-02T19:32:48.835Z,5.05
2022-11-02T19:34:50.471Z,5.06
2022-11-02T19:36:52.444Z,5.24
2022-11-02T19:38:54.208Z,5.16
2022-11-02T19:42:56.645Z,5.1
2022-11-02T19:44:57.823Z,5.06
2022-11-02T19:46:59.613Z,4.98
2022-11-02T19:49:00.604Z,5.04
2022-11-02T19:51:01.751Z,4.99
2022-11-02T19:53:03.297Z,5.15
2022-11-02T19:53:47.155Z,5.16
2022-11-02T19:55:48.691Z,5.15
2022-11-02T19:57:50.510Z,5.15
2022-11-02T19:59:51.977Z,4.9
2022-11-02T20:01:53.608Z,4.76
2022-11-02T20:03:55.545Z,4.82
2022-11-02T20:05:57.003Z,5
2022-11-02T20:07:58.056Z,4.93
2022-11-02T20:09:59.772Z,4.88
2022-11-02T20:12:00.622Z,4.81
2022-11-02T20:14:02.313Z,4.79
2022-11-02T20:16:03.846Z,4.92
2022-11-02T20:18:18.729Z,4.91
2022-11-02T20:20:06.623Z,4.78
2022-11-02T20:22:08.399Z,4.75
2022-11-02T20:24:09.688Z,4.82
2022-11-02T20:26:11.503Z,4.76
2022-11-02T20:28:13.322Z,4.72
2022-11-02T20:30:15.089Z,4.73
2022-11-02T20:32:16.891Z,4.77
2022-11-02T20:34:18.498Z,4.69
2022-11-02T20:36:19.771Z,4.6
2022-11-02T20:38:21.074Z,4.67
2022-11-02T20:40:22.476Z,4.5
2022-11-02T20:42:24.469Z,4.38
2022-11-02T20:44:25.480Z,4.4
2022-11-02T20:46:38.883Z,4.44
2022-11-02T20:48:28.585Z,4.43
2022-11-02T20:50:30.392Z,4.32
2022-11-02T20:52:31.863Z,4.25
2022-11-02T20:54:33.251Z,4.37
2022-11-02T20:56:34.665Z,4.28
2022-11-02T20:58:36.313Z,4.22
2022-11-02T21:00:37.962Z,4.18
2022-11-02T21:02:39.663Z,4.03
2022-11-02T21:04:40.636Z,4.01
2022-11-02T21:06:42.134Z,4.03
2022-11-02T21:08:43.894Z,4.03
2022-11-02T21:10:45.281Z,4.04
2022-11-02T21:12:46.730Z,3.92
2022-11-02T21:14:48.770Z,3.99
2022-11-02T21:16:50.263Z,4.14
2022-11-02T21:18:51.617Z,4.09
2022-11-02T21:20:53.233Z,4.09
2022-11-02T21:22:54.348Z,4.04
2022-11-02T21:24:55.481Z,3.98
2022-11-02T21:26:57.462Z,3.88
2022-11-02T21:28:58.673Z,3.81
2022-11-02T21:31:00.552Z,3.79
2022-11-02T21:33:02.662Z,3.68
2022-11-02T21:35:03.724Z,3.75
2022-11-02T21:37:05.158Z,3.91
2022-11-02T21:39:06.529Z,3.98
2022-11-02T21:41:07.941Z,3.93
2022-11-02T21:43:09.405Z,3.86
2022-11-02T21:45:14.013Z,3.77
2022-11-02T21:47:12.195Z,3.77
2022-11-02T21:49:13.975Z,3.78
2022-11-02T21:51:15.349Z,3.85
2022-11-02T21:53:17.000Z,3.78
2022-11-02T21:55:18.313Z,3.67
2022-11-02T21:57:19.964Z,3.53
2022-11-02T21:59:21.665Z,3.47
2022-11-02T22:01:23.138Z,3.61
2022-11-02T22:03:24.637Z,3.68
2022-11-02T22:05:25.994Z,3.72
2022-11-02T22:07:27.199Z,3.71
2022-11-02T22:09:29.078Z,3.76
2022-11-02T22:11:30.563Z,3.69
2022-11-02T22:13:32.130Z,3.58
2022-11-02T22:15:35.874Z,3.46
2022-11-02T22:17:48.943Z,3.39
2022-11-02T22:19:36.846Z,3.38
2022-11-02T22:21:38.145Z,3.35
2022-11-02T22:23:39.661Z,3.42
2022-11-02T22:25:41.192Z,3.43
2022-11-02T22:27:43.036Z,3.51
2022-11-02T22:29:44.908Z,3.45
2022-11-02T22:31:45.930Z,3.41
2022-11-02T22:33:47.319Z,3.31
2022-11-02T22:35:49.217Z,3.26
2022-11-02T22:37:50.904Z,3.28
2022-11-02T22:39:52.777Z,3.31
2022-11-02T22:43:55.791Z,3.32
2022-11-02T22:45:56.878Z,3.23
2022-11-02T22:47:57.926Z,3.24
2022-11-02T22:49:59.952Z,3.14
2022-11-02T22:52:01.295Z,3.08
2022-11-02T22:54:02.276Z,3.13
2022-11-02T22:56:03.734Z,3.19
2022-11-02T22:58:05.131Z,3.29
2022-11-02T23:00:06.639Z,3.23
2022-11-02T23:02:08.603Z,3.28
2022-11-02T23:04:10.544Z,3.41
2022-11-02T23:06:11.685Z,3.54
2022-11-02T23:08:13.502Z,3.7
2022-11-02T23:10:15.135Z,3.59
2022-11-02T23:12:16.144Z,3.54
2022-11-02T23:14:17.775Z,3.46
2022-11-02T23:16:19.148Z,3.21
2022-11-02T23:18:21.141Z,3.19
2022-11-02T23:20:23.178Z,3.14
2022-11-02T23:22:24.188Z,3.02
2022-11-02T23:24:25.549Z,3.17
2022-11-02T23:26:27.341Z,3.19
2022-11-02T23:28:28.734Z,3.22
2022-11-02T23:30:30.638Z,3.17
2022-11-02T23:32:32.459Z,3.06
2022-11-02T23:34:34.089Z,3.03
2022-11-02T23:36:35.474Z,2.99
2022-11-02T23:38:36.885Z,3.03
2022-11-02T23:40:38.387Z,3.09
2022-11-02T23:42:40.216Z,3.13
2022-11-02T23:44:41.335Z,3.08
2022-11-02T23:46:43.165Z,3.01
2022-11-02T23:48:45.840Z,3.02
2022-11-02T23:50:46.505Z,2.93
2022-11-02T23:52:47.582Z,2.95
2022-11-02T23:54:49.122Z,3.06
2022-11-02T23:56:50.769Z,3.04
2022-11-02T23:58:51.900Z,2.94
